sensor_id;sensor_type;location;lat;lon;timestamp;pressure;altitude;pressure_sealevel;temperature;humidity
52319;BME280;38258;51.148;14.068;2023-02-20T00:02:13;98973.00;;;-0.25;100.00
52319;BME280;38258;51.148;14.068;2023-02-20T00:04:40;98962.56;;;-0.31;100.00
52319;BME280;38258;51.148;14.068;2023-02-20T00:07:07;98961.81;;;-0.27;100.00
52319;BME280;38258;51.148;14.068;2023-02-20T00:09:34;98961.09;;;-0.21;100.00
52319;BME280;38258;51.148;14.068;2023-02-20T00:12:02;98961.13;;;-0.20;100.00
52319;BME280;38258;51.148;14.068;2023-02-20T00:14:28;98970.56;;;-0.20;100.00
52319;BME280;38258;51.148;14.068;2023-02-20T00:16:55;98969.06;;;-0.10;100.00
52319;BME280;38258;51.148;14.068;2023-02-20T00:19:22;98959.53;;;-0.15;100.00
52319;BME280;38258;51.148;14.068;2023-02-20T00:21:49;98957.78;;;-0.16;100.00
52319;BME280;38258;51.148;14.068;2023-02-20T00:24:17;98956.88;;;-0.19;100.00
52319;BME280;38258;51.148;14.068;2023-02-20T00:26:45;98965.50;;;-0.16;100.00
52319;BME280;38258;51.148;14.068;2023-02-20T00:29:15;98954.00;;;0.05;100.00
52319;BME280;38258;51.148;14.068;2023-02-20T00:31:43;98950.53;;;0.05;100.00
52319;BME280;38258;51.148;14.068;2023-02-20T00:34:09;98924.75;;;0.00;100.00
52319;BME280;38258;51.148;14.068;2023-02-20T00:36:36;98942.09;;;0.09;100.00
52319;BME280;38258;51.148;14.068;2023-02-20T00:39:05;98931.69;;;0.04;100.00
52319;BME280;38258;51.148;14.068;2023-02-20T00:41:32;98922.47;;;0.14;100.00
52319;BME280;38258;51.148;14.068;2023-02-20T00:43:59;98924.06;;;0.09;100.00
52319;BME280;38258;51.148;14.068;2023-02-20T00:46:27;98917.28;;;0.12;100.00
52319;BME280;38258;51.148;14.068;2023-02-20T00:48:54;98919.81;;;0.11;100.00
52319;BME280;38258;51.148;14.068;2023-02-20T00:51:39;98916.44;;;0.13;100.00
52319;BME280;38258;51.148;14.068;2023-02-20T00:54:06;98919.94;;;0.17;100.00
52319;BME280;38258;51.148;14.068;2023-02-20T00:56:33;98919.06;;;0.15;100.00
52319;BME280;38258;51.148;14.068;2023-02-20T00:59:00;98922.59;;;0.20;100.00
52319;BME280;38258;51.148;14.068;2023-02-20T01:01:29;98924.38;;;0.23;100.00
52319;BME280;38258;51.148;14.068;2023-02-20T01:03:55;98922.75;;;0.28;100.00
52319;BME280;38258;51.148;14.068;2023-02-20T01:06:22;98926.09;;;0.24;100.00
52319;BME280;38258;51.148;14.068;2023-02-20T01:08:50;98909.88;;;0.28;100.00
52319;BME280;38258;51.148;14.068;2023-02-20T01:11:19;98911.94;;;0.43;100.00
52319;BME280;38258;51.148;14.068;2023-02-20T01:13:46;98913.72;;;0.47;100.00
52319;BME280;38258;51.148;14.068;2023-02-20T01:16:13;98910.25;;;0.45;100.00
52319;BME280;38258;51.148;14.068;2023-02-20T01:18:43;98895.78;;;0.50;100.00
52319;BME280;38258;51.148;14.068;2023-02-20T01:21:09;98891.69;;;0.62;100.00
52319;BME280;38258;51.148;14.068;2023-02-20T01:23:36;98874.56;;;0.64;100.00
52319;BME280;38258;51.148;14.068;2023-02-20T01:26:03;98892.59;;;0.62;100.00
52319;BME280;38258;51.148;14.068;2023-02-20T01:28:30;98885.81;;;0.67;100.00
52319;BME280;38258;51.148;14.068;2023-02-20T01:30:57;98880.03;;;0.79;100.00
52319;BME280;38258;51.148;14.068;2023-02-20T01:33:24;98885.34;;;0.89;100.00
52319;BME280;38258;51.148;14.068;2023-02-20T01:35:52;98878.41;;;0.86;100.00
52319;BME280;38258;51.148;14.068;2023-02-20T01:38:20;98887.84;;;0.84;100.00
52319;BME280;38258;51.148;14.068;2023-02-20T01:40:48;98880.31;;;0.95;100.00
52319;BME280;38258;51.148;14.068;2023-02-20T01:43:15;98877.81;;;0.98;100.00
52319;BME280;38258;51.148;14.068;2023-02-20T01:45:43;98872.00;;;1.10;100.00
52319;BME280;38258;51.148;14.068;2023-02-20T01:48:18;98856.31;;;0.97;100.00
52319;BME280;38258;51.148;14.068;2023-02-20T01:50:49;98874.56;;;1.08;100.00
52319;BME280;38258;51.148;14.068;2023-02-20T01:53:21;98872.78;;;1.07;100.00
52319;BME280;38258;51.148;14.068;2023-02-20T01:55:51;98873.75;;;1.12;100.00
52319;BME280;38258;51.148;14.068;2023-02-20T01:58:22;98870.38;;;1.17;100.00
52319;BME280;38258;51.148;14.068;2023-02-20T02:00:51;98879.00;;;1.19;100.00
52319;BME280;38258;51.148;14.068;2023-02-20T02:03:21;98863.59;;;1.20;100.00
52319;BME280;38258;51.148;14.068;2023-02-20T02:05:52;98837.81;;;1.22;100.00
52319;BME280;38258;51.148;14.068;2023-02-20T02:08:22;98840.56;;;1.30;100.00
52319;BME280;38258;51.148;14.068;2023-02-20T02:10:55;98834.47;;;1.26;100.00
52319;BME280;38258;51.148;14.068;2023-02-20T02:13:22;98837.06;;;1.26;100.00
52319;BME280;38258;51.148;14.068;2023-02-20T02:16:02;98836.25;;;1.30;100.00
52319;BME280;38258;51.148;14.068;2023-02-20T02:18:50;98846.53;;;1.27;100.00
52319;BME280;38258;51.148;14.068;2023-02-20T02:22:02;98848.34;;;1.34;100.00
52319;BME280;38258;51.148;14.068;2023-02-20T02:24:59;98833.88;;;1.43;100.00
52319;BME280;38258;51.148;14.068;2023-02-20T02:28:07;98847.59;;;1.41;100.00
52319;BME280;38258;51.148;14.068;2023-02-20T02:30:48;98845.03;;;1.41;100.00
52319;BME280;38258;51.148;14.068;2023-02-20T02:39:30;98837.47;;;1.52;100.00
52319;BME280;38258;51.148;14.068;2023-02-20T02:42:07;98838.47;;;1.62;100.00
52319;BME280;38258;51.148;14.068;2023-02-20T02:44:39;98790.84;;;1.38;100.00
52319;BME280;38258;51.148;14.068;2023-02-20T02:47:11;98813.63;;;1.67;100.00
52319;BME280;38258;51.148;14.068;2023-02-20T02:49:45;98810.13;;;1.64;100.00
52319;BME280;38258;51.148;14.068;2023-02-20T02:52:16;98798.16;;;1.69;100.00
52319;BME280;38258;51.148;14.068;2023-02-20T02:55:01;98801.69;;;1.76;100.00
52319;BME280;38258;51.148;14.068;2023-02-20T02:57:28;98801.69;;;1.74;100.00
52319;BME280;38258;51.148;14.068;2023-02-20T02:59:57;98801.81;;;1.85;100.00
52319;BME280;38258;51.148;14.068;2023-02-20T03:02:29;98789.78;;;1.86;100.00
52319;BME280;38258;51.148;14.068;2023-02-20T03:04:58;98794.22;;;1.96;100.00
52319;BME280;38258;51.148;14.068;2023-02-20T03:07:28;98795.09;;;1.96;100.00
52319;BME280;38258;51.148;14.068;2023-02-20T03:10:00;98793.38;;;1.97;100.00
52319;BME280;38258;51.148;14.068;2023-02-20T03:12:35;98792.59;;;2.03;100.00
52319;BME280;38258;51.148;14.068;2023-02-20T03:15:07;98789.19;;;2.05;100.00
52319;BME280;38258;51.148;14.068;2023-02-20T03:18:00;98783.06;;;2.00;100.00
52319;BME280;38258;51.148;14.068;2023-02-20T03:20:36;98780.63;;;2.09;100.00
52319;BME280;38258;51.148;14.068;2023-02-20T03:23:10;98778.00;;;2.08;100.00
52319;BME280;38258;51.148;14.068;2023-02-20T03:25:40;98767.78;;;2.14;100.00
52319;BME280;38258;51.148;14.068;2023-02-20T03:28:13;98774.66;;;2.15;100.00
52319;BME280;38258;51.148;14.068;2023-02-20T03:30:45;98758.19;;;2.02;100.00
52319;BME280;38258;51.148;14.068;2023-02-20T03:33:18;98782.44;;;2.18;100.00
52319;BME280;38258;51.148;14.068;2023-02-20T03:36:07;98778.25;;;2.26;100.00
52319;BME280;38258;51.148;14.068;2023-02-20T03:38:58;98772.28;;;2.34;100.00
52319;BME280;38258;51.148;14.068;2023-02-20T03:41:46;98773.16;;;2.34;100.00
52319;BME280;38258;51.148;14.068;2023-02-20T03:44:32;98772.28;;;2.32;100.00
52319;BME280;38258;51.148;14.068;2023-02-20T03:47:00;98764.63;;;2.42;100.00
52319;BME280;38258;51.148;14.068;2023-02-20T03:49:31;98769.88;;;2.49;100.00
52319;BME280;38258;51.148;14.068;2023-02-20T03:52:01;98775.06;;;2.51;100.00
52319;BME280;38258;51.148;14.068;2023-02-20T03:54:38;98783.78;;;2.64;100.00
52319;BME280;38258;51.148;14.068;2023-02-20T03:57:09;98777.81;;;2.68;100.00
52319;BME280;38258;51.148;14.068;2023-02-20T03:59:41;98777.91;;;2.76;100.00
52319;BME280;38258;51.148;14.068;2023-02-20T04:02:14;98769.34;;;2.86;100.00
52319;BME280;38258;51.148;14.068;2023-02-20T04:04:45;98769.34;;;2.81;100.00
52319;BME280;38258;51.148;14.068;2023-02-20T04:07:17;98745.09;;;2.68;100.00
52319;BME280;38258;51.148;14.068;2023-02-20T04:09:46;98767.63;;;2.80;100.00
52319;BME280;38258;51.148;14.068;2023-02-20T04:12:16;98756.44;;;2.86;100.00
52319;BME280;38258;51.148;14.068;2023-02-20T04:14:48;98758.19;;;2.86;100.00
52319;BME280;38258;51.148;14.068;2023-02-20T04:17:20;98747.00;;;2.90;100.00
52319;BME280;38258;51.148;14.068;2023-02-20T04:19:50;98757.28;;;2.80;100.00
52319;BME280;38258;51.148;14.068;2023-02-20T04:22:19;98732.25;;;2.79;100.00
52319;BME280;38258;51.148;14.068;2023-02-20T04:24:54;98744.38;;;2.85;100.00
52319;BME280;38258;51.148;14.068;2023-02-20T04:27:24;98742.72;;;2.92;100.00
52319;BME280;38258;51.148;14.068;2023-02-20T04:29:55;98742.72;;;2.93;100.00
52319;BME280;38258;51.148;14.068;2023-02-20T04:32:21;98735.78;;;2.86;100.00
52319;BME280;38258;51.148;14.068;2023-02-20T04:34:50;98741.88;;;2.94;100.00
52319;BME280;38258;51.148;14.068;2023-02-20T04:37:18;98741.78;;;2.82;100.00
52319;BME280;38258;51.148;14.068;2023-02-20T04:39:47;98744.44;;;2.91;100.00
52319;BME280;38258;51.148;14.068;2023-02-20T04:42:17;98722.78;;;2.78;100.00
52319;BME280;38258;51.148;14.068;2023-02-20T04:44:43;98744.47;;;2.94;100.00
52319;BME280;38258;51.148;14.068;2023-02-20T04:47:13;98751.31;;;2.91;100.00
52319;BME280;38258;51.148;14.068;2023-02-20T04:49:40;98746.19;;;2.95;100.00
52319;BME280;38258;51.148;14.068;2023-02-20T04:52:09;98757.41;;;3.01;100.00
52319;BME280;38258;51.148;14.068;2023-02-20T04:54:37;98756.53;;;2.99;100.00
52319;BME280;38258;51.148;14.068;2023-02-20T04:57:06;98754.09;;;3.13;100.00
52319;BME280;38258;51.148;14.068;2023-02-20T04:59:35;98760.13;;;3.11;100.00
52319;BME280;38258;51.148;14.068;2023-02-20T05:02:03;98739.47;;;3.18;100.00
52319;BME280;38258;51.148;14.068;2023-02-20T05:04:30;98745.50;;;3.20;100.00
52319;BME280;38258;51.148;14.068;2023-02-20T05:06:57;98717.00;;;3.06;100.00
52319;BME280;38258;51.148;14.068;2023-02-20T05:09:24;98739.50;;;3.22;100.00
52319;BME280;38258;51.148;14.068;2023-02-20T05:11:51;98738.72;;;3.33;100.00
52319;BME280;38258;51.148;14.068;2023-02-20T05:14:18;98737.00;;;3.38;100.00
52319;BME280;38258;51.148;14.068;2023-02-20T05:16:47;98707.66;;;3.28;100.00
52319;BME280;38258;51.148;14.068;2023-02-20T05:19:16;98718.97;;;3.46;100.00
52319;BME280;38258;51.148;14.068;2023-02-20T05:21:44;98710.31;;;3.42;100.00
52319;BME280;38258;51.148;14.068;2023-02-20T05:24:29;98725.00;;;3.51;100.00
52319;BME280;38258;51.148;14.068;2023-02-20T05:26:57;98712.91;;;3.41;100.00
52319;BME280;38258;51.148;14.068;2023-02-20T05:29:23;98693.03;;;3.35;100.00
52319;BME280;38258;51.148;14.068;2023-02-20T05:31:52;98704.34;;;3.56;100.00
52319;BME280;38258;51.148;14.068;2023-02-20T05:34:19;98706.09;;;3.58;100.00
52319;BME280;38258;51.148;14.068;2023-02-20T05:36:47;98701.78;;;3.60;100.00
52319;BME280;38258;51.148;14.068;2023-02-20T05:39:14;98701.81;;;3.68;100.00
52319;BME280;38258;51.148;14.068;2023-02-20T05:41:40;98689.78;;;3.68;100.00
52319;BME280;38258;51.148;14.068;2023-02-20T05:44:07;98676.84;;;3.72;100.00
52319;BME280;38258;51.148;14.068;2023-02-20T05:46:38;98685.44;;;3.69;100.00
52319;BME280;38258;51.148;14.068;2023-02-20T05:49:07;98682.84;;;3.69;100.00
52319;BME280;38258;51.148;14.068;2023-02-20T05:51:33;98702.72;;;3.68;100.00
52319;BME280;38258;51.148;14.068;2023-02-20T05:54:00;98702.72;;;3.68;100.00
52319;BME280;38258;51.148;14.068;2023-02-20T05:56:27;98705.34;;;3.79;100.00
52319;BME280;38258;51.148;14.068;2023-02-20T05:58:54;98703.59;;;3.81;100.00
52319;BME280;38258;51.148;14.068;2023-02-20T06:01:23;98703.59;;;3.74;100.00
52319;BME280;38258;51.148;14.068;2023-02-20T06:03:50;98694.09;;;3.76;100.00
52319;BME280;38258;51.148;14.068;2023-02-20T06:06:19;98697.53;;;3.72;100.00
52319;BME280;38258;51.148;14.068;2023-02-20T06:08:47;98699.31;;;3.82;100.00
52319;BME280;38258;51.148;14.068;2023-02-20T06:11:14;98657.88;;;3.66;100.00
52319;BME280;38258;51.148;14.068;2023-02-20T06:13:42;98677.72;;;3.80;100.00
52319;BME280;38258;51.148;14.068;2023-02-20T06:16:10;98678.56;;;3.76;100.00
52319;BME280;38258;51.148;14.068;2023-02-20T06:18:38;98684.66;;;3.84;100.00
52319;BME280;38258;51.148;14.068;2023-02-20T06:21:06;98676.03;;;3.82;100.00
52319;BME280;38258;51.148;14.068;2023-02-20T06:23:35;98670.00;;;3.83;100.00
52319;BME280;38258;51.148;14.068;2023-02-20T06:26:03;98670.00;;;3.83;100.00
52319;BME280;38258;51.148;14.068;2023-02-20T06:28:29;98667.38;;;3.81;100.00
52319;BME280;38258;51.148;14.068;2023-02-20T06:30:56;98669.13;;;3.86;100.00
52319;BME280;38258;51.148;14.068;2023-02-20T06:33:23;98676.00;;;3.84;100.00
52319;BME280;38258;51.148;14.068;2023-02-20T06:35:50;98663.97;;;3.89;100.00
52319;BME280;38258;51.148;14.068;2023-02-20T06:38:17;98676.03;;;3.91;100.00
52319;BME280;38258;51.148;14.068;2023-02-20T06:40:45;98657.06;;;3.97;100.00
52319;BME280;38258;51.148;14.068;2023-02-20T06:43:12;98648.44;;;3.98;100.00
52319;BME280;38258;51.148;14.068;2023-02-20T06:45:39;98645.00;;;4.01;100.00
52319;BME280;38258;51.148;14.068;2023-02-20T06:48:05;98662.28;;;4.16;100.00
52319;BME280;38258;51.148;14.068;2023-02-20T06:50:32;98660.56;;;4.05;100.00
52319;BME280;38258;51.148;14.068;2023-02-20T06:52:59;98647.59;;;4.07;100.00
52319;BME280;38258;51.148;14.068;2023-02-20T06:55:26;98663.16;;;4.13;100.00
52319;BME280;38258;51.148;14.068;2023-02-20T06:57:54;98657.13;;;4.17;100.00
52319;BME280;38258;51.148;14.068;2023-02-20T07:00:21;98655.41;;;4.22;100.00
52319;BME280;38258;51.148;14.068;2023-02-20T07:02:48;98658.00;;;4.24;100.00
52319;BME280;38258;51.148;14.068;2023-02-20T07:05:15;98627.81;;;4.24;100.00
52319;BME280;38258;51.148;14.068;2023-02-20T07:07:42;98658.88;;;4.31;100.00
52319;BME280;38258;51.148;14.068;2023-02-20T07:10:09;98651.97;;;4.33;100.00
52319;BME280;38258;51.148;14.068;2023-02-20T07:12:35;98645.06;;;4.33;100.00
52319;BME280;38258;51.148;14.068;2023-02-20T07:15:05;98648.53;;;4.28;100.00
52319;BME280;38258;51.148;14.068;2023-02-20T07:17:32;98637.28;;;4.32;100.00
52319;BME280;38258;51.148;14.068;2023-02-20T07:19:59;98641.63;;;4.37;100.00
52319;BME280;38258;51.148;14.068;2023-02-20T07:22:26;98633.84;;;4.45;100.00
52319;BME280;38258;51.148;14.068;2023-02-20T07:24:53;98620.91;;;4.50;100.00
52319;BME280;38258;51.148;14.068;2023-02-20T07:27:20;98625.22;;;4.56;100.00
52319;BME280;38258;51.148;14.068;2023-02-20T07:29:48;98625.22;;;4.59;100.00
52319;BME280;38258;51.148;14.068;2023-02-20T07:32:17;98622.63;;;4.52;100.00
52319;BME280;38258;51.148;14.068;2023-02-20T07:34:47;98639.91;;;4.60;100.00
52319;BME280;38258;51.148;14.068;2023-02-20T07:37:15;98639.88;;;4.67;100.00
52319;BME280;38258;51.148;14.068;2023-02-20T07:39:42;98623.47;;;4.72;100.00
52319;BME280;38258;51.148;14.068;2023-02-20T07:42:09;98626.94;;;4.69;100.00
52319;BME280;38258;51.148;14.068;2023-02-20T07:44:48;98623.47;;;4.72;100.00
52319;BME280;38258;51.148;14.068;2023-02-20T07:47:22;98571.69;;;4.33;100.00
52319;BME280;38258;51.148;14.068;2023-02-20T07:49:50;98517.31;;;4.05;100.00
52319;BME280;38258;51.148;14.068;2023-02-20T07:52:17;98633.84;;;4.83;100.00
52319;BME280;38258;51.148;14.068;2023-02-20T07:54:43;98635.56;;;4.84;100.00
52319;BME280;38258;51.148;14.068;2023-02-20T07:57:10;98643.34;;;4.79;100.00
52319;BME280;38258;51.148;14.068;2023-02-20T07:59:37;98624.34;;;4.69;100.00
52319;BME280;38258;51.148;14.068;2023-02-20T08:02:04;98602.75;;;4.61;100.00
52319;BME280;38258;51.148;14.068;2023-02-20T08:04:32;98563.91;;;4.50;100.00
52319;BME280;38258;51.148;14.068;2023-02-20T08:06:58;98548.38;;;4.41;100.00
52319;BME280;38258;51.148;14.068;2023-02-20T08:09:25;98544.06;;;4.27;100.00
52319;BME280;38258;51.148;14.068;2023-02-20T08:11:52;98620.88;;;4.98;100.00
52319;BME280;38258;51.148;14.068;2023-02-20T08:14:18;98434.50;;;4.06;100.00
52319;BME280;38258;51.148;14.068;2023-02-20T08:16:45;98572.38;;;5.22;100.00
52319;BME280;38258;51.148;14.068;2023-02-20T08:19:12;98486.94;;;4.91;100.00
52319;BME280;38258;51.148;14.068;2023-02-20T08:21:40;98436.13;;;4.52;100.00
52319;BME280;38258;51.148;14.068;2023-02-20T08:24:06;98533.41;;;5.34;100.00
52319;BME280;38258;51.148;14.068;2023-02-20T08:26:33;98605.91;;;5.65;100.00
52319;BME280;38258;51.148;14.068;2023-02-20T08:29:00;98586.97;;;5.48;100.00
52319;BME280;38258;51.148;14.068;2023-02-20T08:31:27;98549.88;;;5.30;100.00
52319;BME280;38258;51.148;14.068;2023-02-20T08:33:54;98476.63;;;4.78;100.00
52319;BME280;38258;51.148;14.068;2023-02-20T08:36:20;98539.47;;;5.36;100.00
52319;BME280;38258;51.148;14.068;2023-02-20T08:38:48;98499.69;;;5.34;100.00
52319;BME280;38258;51.148;14.068;2023-02-20T08:41:15;98495.16;;;5.75;100.00
52319;BME280;38258;51.148;14.068;2023-02-20T08:43:43;98402.81;;;5.46;100.00
52319;BME280;38258;51.148;14.068;2023-02-20T08:46:09;98478.56;;;5.90;100.00
52319;BME280;38258;51.148;14.068;2023-02-20T08:48:37;98487.16;;;6.05;100.00
52319;BME280;38258;51.148;14.068;2023-02-20T08:51:05;98533.72;;;6.23;100.00
52319;BME280;38258;51.148;14.068;2023-02-20T08:53:32;98489.81;;;5.96;100.00
52319;BME280;38258;51.148;14.068;2023-02-20T08:56:00;98435.56;;;5.58;100.00
52319;BME280;38258;51.148;14.068;2023-02-20T08:58:29;98435.34;;;5.85;100.00
52319;BME280;38258;51.148;14.068;2023-02-20T09:00:56;98471.41;;;6.20;100.00
52319;BME280;38258;51.148;14.068;2023-02-20T09:03:23;98400.00;;;5.73;100.00
52319;BME280;38258;51.148;14.068;2023-02-20T09:05:51;98365.47;;;5.63;100.00
52319;BME280;38258;51.148;14.068;2023-02-20T09:08:18;98503.00;;;6.69;100.00
52319;BME280;38258;51.148;14.068;2023-02-20T09:10:45;98540.75;;;7.03;100.00
52319;BME280;38258;51.148;14.068;2023-02-20T09:13:13;98364.25;;;6.04;100.00
52319;BME280;38258;51.148;14.068;2023-02-20T09:15:40;98392.69;;;6.15;100.00
52319;BME280;38258;51.148;14.068;2023-02-20T09:18:08;98482.16;;;6.72;100.00
52319;BME280;38258;51.148;14.068;2023-02-20T09:20:37;98502.69;;;6.97;100.00
52319;BME280;38258;51.148;14.068;2023-02-20T09:23:04;98436.53;;;6.46;100.00
52319;BME280;38258;51.148;14.068;2023-02-20T09:25:31;98465.16;;;6.43;100.00
52319;BME280;38258;51.148;14.068;2023-02-20T09:27:58;98417.78;;;6.18;100.00
52319;BME280;38258;51.148;14.068;2023-02-20T09:30:26;98440.06;;;6.41;100.00
52319;BME280;38258;51.148;14.068;2023-02-20T09:32:53;98454.69;;;6.51;100.00
52319;BME280;38258;51.148;14.068;2023-02-20T09:35:22;98471.81;;;6.66;100.00
52319;BME280;38258;51.148;14.068;2023-02-20T09:37:50;98431.38;;;6.43;100.00
52319;BME280;38258;51.148;14.068;2023-02-20T09:40:20;98371.88;;;6.17;100.00
52319;BME280;38258;51.148;14.068;2023-02-20T09:42:58;98392.44;;;6.37;100.00
52319;BME280;38258;51.148;14.068;2023-02-20T09:45:34;98436.41;;;6.57;100.00
52319;BME280;38258;51.148;14.068;2023-02-20T09:48:14;98487.19;;;6.89;100.00
52319;BME280;38258;51.148;14.068;2023-02-20T09:50:50;98423.31;;;6.65;100.00
52319;BME280;38258;51.148;14.068;2023-02-20T09:53:22;98467.03;;;7.07;100.00
52319;BME280;38258;51.148;14.068;2023-02-20T09:55:50;98491.31;;;7.03;100.00
52319;BME280;38258;51.148;14.068;2023-02-20T09:58:22;98492.13;;;7.10;100.00
52319;BME280;38258;51.148;14.068;2023-02-20T10:00:55;98399.09;;;6.64;100.00
52319;BME280;38258;51.148;14.068;2023-02-20T10:03:29;98399.72;;;6.84;100.00
52319;BME280;38258;51.148;14.068;2023-02-20T10:06:00;98438.31;;;7.15;100.00
52319;BME280;38258;51.148;14.068;2023-02-20T10:08:28;98347.00;;;6.72;100.00
52319;BME280;38258;51.148;14.068;2023-02-20T10:10:58;98385.41;;;7.16;100.00
52319;BME280;38258;51.148;14.068;2023-02-20T10:13:37;98444.63;;;7.58;100.00
52319;BME280;38258;51.148;14.068;2023-02-20T10:16:19;98435.13;;;7.55;100.00
52319;BME280;38258;51.148;14.068;2023-02-20T10:18:54;98271.91;;;6.50;100.00
52319;BME280;38258;51.148;14.068;2023-02-20T10:21:34;98388.66;;;7.32;100.00
52319;BME280;38258;51.148;14.068;2023-02-20T10:24:13;98361.88;;;7.25;100.00
52319;BME280;38258;51.148;14.068;2023-02-20T10:26:47;98357.38;;;7.35;100.00
52319;BME280;38258;51.148;14.068;2023-02-20T10:29:20;98310.16;;;7.02;100.00
52319;BME280;38258;51.148;14.068;2023-02-20T10:31:58;98329.66;;;7.31;100.00
52319;BME280;38258;51.148;14.068;2023-02-20T10:34:29;98436.09;;;8.03;100.00
52319;BME280;38258;51.148;14.068;2023-02-20T10:37:01;98315.81;;;7.29;100.00
52319;BME280;38258;51.148;14.068;2023-02-20T10:39:31;98289.88;;;7.24;100.00
52319;BME280;38258;51.148;14.068;2023-02-20T10:42:03;98376.34;;;7.93;100.00
52319;BME280;38258;51.148;14.068;2023-02-20T10:44:38;98328.91;;;7.77;100.00
52319;BME280;38258;51.148;14.068;2023-02-20T10:47:14;98308.31;;;7.63;100.00
52319;BME280;38258;51.148;14.068;2023-02-20T10:49:49;98356.25;;;8.00;99.48
52319;BME280;38258;51.148;14.068;2023-02-20T10:52:23;98233.09;;;7.49;95.13
52319;BME280;38258;51.148;14.068;2023-02-20T10:54:56;98339.34;;;8.21;96.67
52319;BME280;38258;51.148;14.068;2023-02-20T10:57:26;98375.25;;;8.54;94.14
52319;BME280;38258;51.148;14.068;2023-02-20T10:59:56;98404.22;;;8.83;93.44
52319;BME280;38258;51.148;14.068;2023-02-20T11:02:33;98364.94;;;8.90;89.13
52319;BME280;38258;51.148;14.068;2023-02-20T11:05:07;98348.03;;;8.68;89.58
52319;BME280;38258;51.148;14.068;2023-02-20T11:07:35;98353.25;;;8.68;89.73
52319;BME280;38258;51.148;14.068;2023-02-20T11:10:05;98221.19;;;7.82;87.61
52319;BME280;38258;51.148;14.068;2023-02-20T11:12:35;98243.56;;;7.92;89.49
52319;BME280;38258;51.148;14.068;2023-02-20T11:15:05;98208.19;;;7.80;90.92
52319;BME280;38258;51.148;14.068;2023-02-20T11:17:37;98189.13;;;7.80;90.98
52319;BME280;38258;51.148;14.068;2023-02-20T11:23:42;98293.09;;;8.33;89.12
52319;BME280;38258;51.148;14.068;2023-02-20T11:28:58;98167.56;;;7.71;87.84
52319;BME280;38258;51.148;14.068;2023-02-20T11:31:28;98246.13;;;8.36;87.84
52319;BME280;38258;51.148;14.068;2023-02-20T11:34:01;98237.16;;;8.51;90.11
52319;BME280;38258;51.148;14.068;2023-02-20T11:36:35;98184.19;;;8.08;87.95
52319;BME280;38258;51.148;14.068;2023-02-20T11:39:13;98159.00;;;8.09;86.63
52319;BME280;38258;51.148;14.068;2023-02-20T11:41:42;98191.38;;;8.36;85.35
52319;BME280;38258;51.148;14.068;2023-02-20T11:44:23;98318.34;;;9.13;86.43
52319;BME280;38258;51.148;14.068;2023-02-20T11:47:10;98212.94;;;8.84;84.62
52319;BME280;38258;51.148;14.068;2023-02-20T11:49:38;98176.97;;;8.97;80.16
52319;BME280;38258;51.148;14.068;2023-02-20T11:52:07;98224.25;;;9.19;80.28
52319;BME280;38258;51.148;14.068;2023-02-20T11:54:34;98203.31;;;9.54;78.12
52319;BME280;38258;51.148;14.068;2023-02-20T11:57:03;98259.06;;;10.16;75.19
52319;BME280;38258;51.148;14.068;2023-02-20T11:59:34;98198.97;;;10.16;74.87
52319;BME280;38258;51.148;14.068;2023-02-20T12:02:23;98154.53;;;9.56;76.15
52319;BME280;38258;51.148;14.068;2023-02-20T12:05:03;98200.88;;;9.79;74.62
52319;BME280;38258;51.148;14.068;2023-02-20T12:07:34;98164.94;;;9.57;77.05
52319;BME280;38258;51.148;14.068;2023-02-20T12:10:09;98185.97;;;9.51;73.56
52319;BME280;38258;51.148;14.068;2023-02-20T12:12:41;98149.03;;;9.33;74.15
52319;BME280;38258;51.148;14.068;2023-02-20T12:15:12;98104.31;;;9.14;74.49
52319;BME280;38258;51.148;14.068;2023-02-20T12:17:46;98244.56;;;9.74;76.00
52319;BME280;38258;51.148;14.068;2023-02-20T12:20:18;98143.25;;;9.22;74.67
52319;BME280;38258;51.148;14.068;2023-02-20T12:22:52;98181.66;;;9.50;75.98
52319;BME280;38258;51.148;14.068;2023-02-20T12:25:26;98109.09;;;9.31;74.34
52319;BME280;38258;51.148;14.068;2023-02-20T12:28:06;98210.63;;;10.04;75.77
52319;BME280;38258;51.148;14.068;2023-02-20T12:30:53;98140.31;;;9.96;76.01
52319;BME280;38258;51.148;14.068;2023-02-20T12:36:26;98183.44;;;10.40;75.47
52319;BME280;38258;51.148;14.068;2023-02-20T12:38:57;98202.00;;;10.02;75.25
52319;BME280;38258;51.148;14.068;2023-02-20T12:41:30;98126.28;;;9.70;76.11
52319;BME280;38258;51.148;14.068;2023-02-20T12:44:02;98193.41;;;10.57;77.07
52319;BME280;38258;51.148;14.068;2023-02-20T12:46:36;98186.03;;;10.11;75.25
52319;BME280;38258;51.148;14.068;2023-02-20T12:49:17;98203.91;;;10.27;75.87
52319;BME280;38258;51.148;14.068;2023-02-20T12:51:52;98168.41;;;10.18;76.03
52319;BME280;38258;51.148;14.068;2023-02-20T12:54:29;98153.56;;;10.20;77.15
52319;BME280;38258;51.148;14.068;2023-02-20T12:57:06;98158.59;;;10.26;78.18
52319;BME280;38258;51.148;14.068;2023-02-20T12:59:43;98171.09;;;10.45;77.79
52319;BME280;38258;51.148;14.068;2023-02-20T13:02:19;98187.81;;;10.41;78.34
52319;BME280;38258;51.148;14.068;2023-02-20T13:04:52;98165.16;;;10.40;77.83
52319;BME280;38258;51.148;14.068;2023-02-20T13:07:25;98182.56;;;10.96;76.54
52319;BME280;38258;51.148;14.068;2023-02-20T13:10:00;98189.31;;;10.77;77.63
52319;BME280;38258;51.148;14.068;2023-02-20T13:12:28;98178.53;;;10.59;78.92
52319;BME280;38258;51.148;14.068;2023-02-20T13:15:06;98167.63;;;10.73;78.68
52319;BME280;38258;51.148;14.068;2023-02-20T13:17:41;98164.41;;;10.65;77.05
52319;BME280;38258;51.148;14.068;2023-02-20T13:20:16;98169.03;;;10.83;78.69
52319;BME280;38258;51.148;14.068;2023-02-20T13:23:01;98172.19;;;10.38;80.62
52319;BME280;38258;51.148;14.068;2023-02-20T13:25:42;98171.88;;;10.49;79.56